• Join FlightAware (Why Join?)
  • Login
  • US Flag 
01:03AM EDT


 

Airport Tracker/Info


-or-


 

Live Flight TrackerFlight Track Log ✈ KAP720 ✈ 07-May-2013 ✈ KALB - KOGS

Flight Track Log - Related Links

Times and Time Zones

All times are in EDT time to prevent confusion due to time zone crossing. See the KAP720 flight status page for this flight to view local times or setup timezone preferences in your user account.

Time Position Orientation Groundspeed Altitude Reporting Facility
EDT Latitude Longitude Course Direction KTS MPH feet Rate Location/Type
02:43PM 42.7211 -73.8306 290° West 119 137 1,500  Level Boston Center
02:44PM 42.7331 -73.8761 290° West 122 140 2,100 540 Climbing Boston Center
02:45PM 42.7619 -73.9022 326° Northwest 131 151 2,700 600 Climbing Boston Center
02:46PM 42.7931 -73.9228 334° Northwest 129 148 3,400 600 Climbing Boston Center
02:47PM 42.8217 -73.9517 323° Northwest 125 144 4,000 600 Climbing Boston Center
02:48PM 42.8486 -73.9750 328° Northwest 125 144 4,600 480 Climbing Boston Center
02:49PM 42.8817 -73.9956 336° Northwest 127 146 5,000 540 Climbing Boston Center
02:50PM 42.9125 -74.0192 331° Northwest 129 148 5,700 660 Climbing Boston Center
02:51PM 42.9478 -74.0428 334° Northwest 124 143 6,400 360 Climbing Boston Center
02:52PM 42.9786 -74.0692 328° Northwest 130 150 6,500 60 Climbing Boston Center
02:53PM 43.0156 -74.0983 330° Northwest 162 186 6,600  Climbing Boston Center
02:54PM 43.0506 -74.1364 322° Northwest 169 194 6,600  Level Boston Center
02:55PM 43.0897 -74.1658 331° Northwest 159 183 6,600  Level Boston Center
02:56PM 43.1308 -74.1956 332° Northwest 161 185 6,600 -120 Level Boston Center
02:56PM 43.1433 -74.2014 341° North 166 191 6,500 -120 Descending Boston Center
02:57PM 43.1825 -74.2367 327° Northwest 166 191 6,500  Level Boston Center
02:58PM 43.2092 -74.2575 330° Northwest 166 191 6,500 -60 Level Boston Center
02:59PM 43.2586 -74.2961 330° Northwest 161 185 6,400  Descending Boston Center
03:00PM 43.2894 -74.3197 331° Northwest 161 185 6,600  Climbing Boston Center
03:01PM 43.3244 -74.3494 328° Northwest 161 185 6,500 -60 Descending Boston Center
03:02PM 43.3697 -74.3822 332° Northwest 161 185 6,500  Level Boston Center
03:03PM 43.4128 -74.4208 327° Northwest 166 191 6,600  Climbing Boston Center
03:04PM 43.4517 -74.4536 329° Northwest 166 191 6,500 -120 Descending Boston Center
03:05PM 43.4950 -74.4864 331° Northwest 166 191 6,400 -60 Descending Boston Center
03:06PM 43.5422 -74.5253 329° Northwest 177 204 6,400  Level Boston Center
03:07PM 43.5853 -74.5583 331° Northwest 177 204 6,400  Level Boston Center
03:08PM 43.6222 -74.5883 330° Northwest 171 197 6,400  Level Boston Center
03:09PM 43.6592 -74.6183 330° Northwest 166 191 6,500  Climbing Boston Center
03:10PM 43.7003 -74.6486 332° Northwest 161 185 6,400  Descending Boston Center
03:11PM 43.7372 -74.6844 325° Northwest 161 185 6,500  Climbing Boston Center
03:12PM 43.7700 -74.7058 335° Northwest 161 185 6,400 -60 Descending Boston Center
03:13PM 43.8172 -74.7478 327° Northwest 167 192 6,400  Level Boston Center
03:14PM 43.8542 -74.7781 329° Northwest 167 192 6,400  Level Boston Center
03:15PM 43.8889 -74.8053 331° Northwest 157 181 6,500  Climbing Boston Center
03:16PM 43.9258 -74.8356 329° Northwest 157 181 6,400 -60 Descending Boston Center
03:17PM 43.9647 -74.8689 328° Northwest 157 181 6,400  Level Boston Center
03:18PM 44.0017 -74.8992 329° Northwest 157 181 6,400  Level Boston Center
03:20PM 44.0406 -74.9297 331° Northwest 163 188 6,500  Climbing Boston Center
03:21PM 44.0897 -74.9694 330° Northwest 163 188 6,400 -60 Descending Boston Center
03:22PM 44.1286 -75.0000 331° Northwest 163 188 6,400  Level Boston Center
03:23PM 44.1675 -75.0333 328° Northwest 163 188 6,400  Level Boston Center
03:24PM 44.2064 -75.0611 333° Northwest 163 188 6,400  Level Boston Center
03:25PM 44.2478 -75.0775 344° North 157 181 6,400  Level Boston Center
03:26PM 44.2908 -75.1025 337° Northwest 157 181 6,400  Level Boston Center
03:27PM 44.3322 -75.1189 344° North 152 175 6,400  Level Boston Center
03:28PM 44.3717 -75.1294 349° North 147 169 6,500 -120 Climbing Boston Center
03:29PM 44.4169 -75.1489 343° North 152 175 6,200 -540 Descending Boston Center
03:30PM 44.4561 -75.1653 343° North 162 186 5,500 -660 Descending Boston Center
03:31PM 44.5081 -75.1794 349° North 162 186 4,900 -600 Descending Boston Center